createdAt,value
2019-05-11T00:00:37.301Z,100479.05
2019-05-11T00:03:08.262Z,100482.77
2019-05-11T00:05:39.250Z,100493.45
2019-05-11T00:08:10.420Z,100492.45
2019-05-11T00:10:41.417Z,100492.34
2019-05-11T00:13:12.361Z,100475.22
2019-05-11T00:15:43.411Z,100467.09
2019-05-11T00:18:14.473Z,100460.17
2019-05-11T00:20:45.451Z,100462.23
2019-05-11T00:23:16.664Z,100460.79
2019-05-11T00:25:47.623Z,100467.21
2019-05-11T00:28:18.460Z,100462.66
2019-05-11T00:30:49.521Z,100461.51
2019-05-11T00:33:20.550Z,100463.41
2019-05-11T00:35:51.473Z,100469.06
2019-05-11T00:38:22.520Z,100471.13
2019-05-11T00:40:53.406Z,100463.27
2019-05-11T00:43:24.462Z,100459.89
2019-05-11T00:45:55.428Z,100451.20
2019-05-11T00:48:26.796Z,100442.06
2019-05-11T00:51:00.596Z,100435.28
2019-05-11T00:53:31.759Z,100440.72
2019-05-11T00:56:02.698Z,100439.94
2019-05-11T00:58:33.692Z,100434.16
2019-05-11T01:01:04.847Z,100431.54
2019-05-11T01:03:35.741Z,100431.88
2019-05-11T01:06:06.759Z,100428.98
2019-05-11T01:08:37.878Z,100429.75
2019-05-11T01:11:09.050Z,100429.51
2019-05-11T01:13:40.036Z,100426.70
2019-05-11T01:16:11.081Z,100420.35
2019-05-11T01:18:42.121Z,100416.42
2019-05-11T01:21:13.091Z,100417.20
2019-05-11T01:23:44.113Z,100422.50
2019-05-11T01:26:15.103Z,100432.70
2019-05-11T01:28:46.118Z,100427.94
2019-05-11T01:31:17.106Z,100426.75
2019-05-11T01:33:48.106Z,100426.63
2019-05-11T01:36:19.255Z,100435.30
2019-05-11T01:38:50.446Z,100434.02
2019-05-11T01:41:21.434Z,100437.48
2019-05-11T01:43:52.342Z,100434.52
2019-05-11T01:46:23.380Z,100429.87
2019-05-11T01:48:54.346Z,100439.55
2019-05-11T01:51:25.370Z,100433.48
2019-05-11T01:53:56.398Z,100433.86
2019-05-11T01:56:27.393Z,100425.27
2019-05-11T01:58:58.418Z,100425.44
2019-05-11T02:01:29.885Z,100417.51
2019-05-11T02:04:01.383Z,100415.39
2019-05-11T02:06:32.858Z,100409.86
2019-05-11T02:09:07.910Z,100413.42
2019-05-11T02:11:38.893Z,100413.48
2019-05-11T02:14:10.281Z,100402.63
2019-05-11T02:16:41.213Z,100402.69
2019-05-11T02:19:12.236Z,100399.47
2019-05-11T02:21:43.191Z,100399.94
2019-05-11T02:24:14.422Z,100402.22
2019-05-11T02:26:45.460Z,100399.94
2019-05-11T02:29:16.490Z,100397.09
2019-05-11T02:31:47.512Z,100401.46
2019-05-11T02:34:18.469Z,100393.31
2019-05-11T02:36:49.488Z,100395.44
2019-05-11T02:39:20.463Z,100397.66
2019-05-11T02:41:51.619Z,100393.36
2019-05-11T02:44:22.625Z,100397.73
2019-05-11T02:46:53.704Z,100391.49
2019-05-11T02:49:27.876Z,100395.42
2019-05-11T02:51:57.423Z,100393.08
2019-05-11T02:54:28.739Z,100387.90
2019-05-11T02:56:59.812Z,100388.55
2019-05-11T02:59:30.841Z,100392.58
2019-05-11T03:02:04.405Z,100395.09
2019-05-11T03:04:35.580Z,100390.38
2019-05-11T03:07:06.514Z,100396.56
2019-05-11T03:09:37.588Z,100402.30
2019-05-11T03:12:08.713Z,100405.33
2019-05-11T03:14:39.619Z,100406.61
2019-05-11T03:17:23.687Z,100408.41
2019-05-11T03:19:54.580Z,100407.54
2019-05-11T03:22:25.518Z,100414.42
2019-05-11T03:24:56.687Z,100418.77
2019-05-11T03:27:28.291Z,100427.47
2019-05-11T03:30:01.158Z,100425.72
2019-05-11T03:32:32.057Z,100418.84
2019-05-11T03:35:03.410Z,100422.47
2019-05-11T03:37:34.699Z,100419.66
2019-05-11T03:40:08.627Z,100415.67
2019-05-11T03:42:39.712Z,100424.44
2019-05-11T03:45:10.798Z,100427.77
2019-05-11T03:47:41.891Z,100433.86
2019-05-11T03:50:12.955Z,100429.52
2019-05-11T03:52:43.938Z,100431.73
2019-05-11T03:55:15.050Z,100441.26
2019-05-11T03:57:46.031Z,100439.45
2019-05-11T04:00:16.942Z,100436.67
2019-05-11T04:02:47.839Z,100442.25
2019-05-11T04:05:19.370Z,100443.04
2019-05-11T04:07:50.429Z,100448.16
2019-05-11T04:10:25.116Z,100449.38
2019-05-11T04:12:54.443Z,100446.06
2019-05-11T04:15:25.417Z,100440.60
2019-05-11T04:17:56.449Z,100444.04
2019-05-11T04:20:27.354Z,100444.78
2019-05-11T04:22:58.304Z,100446.63
2019-05-11T04:25:29.340Z,100447.59
2019-05-11T04:28:00.379Z,100449.97
2019-05-11T04:30:31.323Z,100438.29
2019-05-11T04:33:02.259Z,100442.25
2019-05-11T04:35:33.268Z,100442.44
2019-05-11T04:38:04.126Z,100440.06
2019-05-11T04:40:35.010Z,100435.56
2019-05-11T04:43:09.034Z,100432.82
2019-05-11T04:45:42.064Z,100434.32
2019-05-11T04:48:13.132Z,100441.88
2019-05-11T04:50:44.073Z,100439.34
2019-05-11T04:53:15.033Z,100437.70
2019-05-11T04:55:45.954Z,100444.47
2019-05-11T04:58:17.029Z,100443.59
2019-05-11T05:03:16.578Z,100442.97
2019-05-11T05:05:47.626Z,100440.63
2019-05-11T05:08:21.213Z,100442.44
2019-05-11T05:13:31.548Z,100443.31
2019-05-11T05:16:02.590Z,100445.53
2019-05-11T05:21:02.638Z,100442.72
2019-05-11T05:23:33.676Z,100435.70
2019-05-11T05:26:04.620Z,100439.23
2019-05-11T05:28:36.437Z,100438.29
2019-05-11T05:31:10.839Z,100442.72
2019-05-11T05:33:41.799Z,100444.28
2019-05-11T05:36:12.853Z,100448.13
2019-05-11T05:38:43.905Z,100448.13
2019-05-11T05:41:14.896Z,100445.78
2019-05-11T05:43:45.904Z,100455.20
2019-05-11T05:46:16.953Z,100449.27
2019-05-11T05:48:48.010Z,100455.30
2019-05-11T05:51:19.102Z,100456.27
2019-05-11T05:56:20.105Z,100457.80
2019-05-11T05:59:11.057Z,100458.11
2019-05-11T06:01:36.520Z,100456.92
2019-05-11T06:04:07.637Z,100455.95
2019-05-11T06:06:42.122Z,100459.45
2019-05-11T06:09:14.841Z,100455.89
2019-05-11T06:11:45.828Z,100460.79
2019-05-11T06:15:06.071Z,100460.75
2019-05-11T06:19:25.628Z,100473.48
2019-05-11T06:21:49.520Z,100464.85
2019-05-11T06:39:13.227Z,100474.98
2019-05-11T06:45:43.817Z,100479.99
2019-05-11T06:51:00.375Z,100482.09
2019-05-11T07:17:13.336Z,100477.90
2019-05-11T07:20:30.565Z,100483.38
2019-05-11T07:34:51.344Z,100494.25
2019-05-11T07:41:10.285Z,100488.91
2019-05-11T07:44:38.574Z,100492.19
2019-05-11T07:47:44.223Z,100499.95
2019-05-11T07:56:44.966Z,100500.95
2019-05-11T08:04:51.078Z,100507.84
2019-05-11T08:08:04.712Z,100505.31
2019-05-11T08:13:18.923Z,100511.97
2019-05-11T08:18:22.932Z,100519.54
2019-05-11T08:25:57.908Z,100523.50
2019-05-11T08:31:23.264Z,100522.23
2019-05-11T08:36:31.348Z,100532.37
2019-05-11T08:39:25.794Z,100533.52
2019-05-11T08:45:50.925Z,100543.97
2019-05-11T08:48:03.715Z,100540.38
2019-05-11T08:55:48.560Z,100558.66
2019-05-11T09:01:19.432Z,100555.16
2019-05-11T09:15:32.403Z,100569.66
2019-05-11T09:25:18.182Z,100588.81
2019-05-11T09:40:12.406Z,100602.48
2019-05-11T09:44:02.500Z,100609.17
2019-05-11T10:10:20.746Z,100640.78
2019-05-11T10:15:33.969Z,100652.47
2019-05-11T10:18:18.544Z,100657.02
2019-05-11T10:24:30.006Z,100653.63
2019-05-11T10:30:45.444Z,100667.11
2019-05-11T10:51:58.782Z,100682.02
2019-05-11T11:31:58.622Z,100738.42
2019-05-11T11:37:05.385Z,100739.53
2019-05-11T11:46:22.552Z,100763.55
2019-05-11T12:18:23.202Z,100798.15
2019-05-11T13:23:54.610Z,100923.44
2019-05-11T13:30:03.760Z,100931.30
2019-05-11T13:33:23.820Z,100938.67
2019-05-11T13:35:54.548Z,100937.73
2019-05-11T13:38:28.545Z,100943.70
2019-05-11T13:41:01.933Z,100944.78
2019-05-11T13:48:53.787Z,100958.44
2019-05-11T13:51:28.544Z,100960.48
2019-05-11T13:54:09.165Z,100964.61
2019-05-11T13:57:00.157Z,100962.34
2019-05-11T13:59:38.405Z,100959.59
2019-05-11T14:05:08.730Z,100974.92
2019-05-11T14:10:09.572Z,100975.95
2019-05-11T14:20:38.575Z,100988.05
2019-05-11T14:23:51.255Z,100996.86
2019-05-11T14:26:44.832Z,101003.81
2019-05-11T14:29:20.234Z,101001.77
2019-05-11T14:36:49.544Z,101019.23
2019-05-11T14:39:20.753Z,101016.94
2019-05-11T14:44:22.840Z,101026.61
2019-05-11T14:49:27.617Z,101035.75
2019-05-11T14:54:29.091Z,101038.93
2019-05-11T14:57:08.097Z,101043.12
2019-05-11T14:59:39.854Z,101044.54
2019-05-11T15:02:28.744Z,101051.78
2019-05-11T15:08:03.614Z,101056.59
2019-05-11T15:13:11.439Z,101071.39
2019-05-11T15:18:34.961Z,101079.39
2019-05-11T15:23:29.216Z,101077.02
2019-05-11T15:36:19.562Z,101103.28
2019-05-11T15:38:58.267Z,101102.13
2019-05-11T15:44:12.237Z,101117.80
2019-05-11T15:54:43.036Z,101119.33
2019-05-11T15:57:30.682Z,101120.96
2019-05-11T16:07:08.243Z,101123.91
2019-05-11T16:20:41.738Z,101148.69
2019-05-11T16:36:28.700Z,101161.95
2019-05-11T16:39:18.923Z,101165.64
2019-05-11T16:42:43.252Z,101171.05
2019-05-11T16:45:51.041Z,101172.34
2019-05-11T16:48:24.897Z,101182.36
2019-05-11T16:50:59.668Z,101187.50
2019-05-11T16:56:19.692Z,101198.59
2019-05-11T16:59:04.516Z,101202.64
2019-05-11T17:01:44.318Z,101204.50
2019-05-11T17:04:20.392Z,101216.31
2019-05-11T17:07:11.665Z,101204.69
2019-05-11T17:12:04.515Z,101223.31
2019-05-11T17:17:04.954Z,101230.59
2019-05-11T17:22:09.517Z,101243.59
2019-05-11T17:27:16.722Z,101254.74
2019-05-11T17:32:17.776Z,101268.05
2019-05-11T17:37:21.556Z,101273.53
2019-05-11T17:42:25.915Z,101288.30
2019-05-11T17:47:29.841Z,101296.50
2019-05-11T17:50:20.030Z,101302.94
2019-05-11T17:52:51.626Z,101299.11
2019-05-11T18:00:21.271Z,101324.73
2019-05-11T18:05:21.255Z,101337.89
2019-05-11T18:07:53.184Z,101335.78
2019-05-11T18:12:54.051Z,101344.75
2019-05-11T18:20:24.812Z,101364.00
2019-05-11T18:27:54.559Z,101376.63
2019-05-11T18:30:25.540Z,101385.47
2019-05-11T18:32:59.885Z,101388.64
2019-05-11T18:35:31.603Z,101391.61
2019-05-11T18:38:03.558Z,101394.98
2019-05-11T18:40:34.559Z,101401.27
2019-05-11T18:43:08.653Z,101415.63
2019-05-11T18:45:39.473Z,101414.55
2019-05-11T18:48:10.485Z,101426.42
2019-05-11T18:50:44.203Z,101425.75
2019-05-11T18:55:44.742Z,101438.75
2019-05-11T18:58:18.457Z,101445.95
2019-05-11T19:00:48.913Z,101458.74
2019-05-11T19:05:48.534Z,101469.12
2019-05-11T19:08:19.626Z,101468.61
2019-05-11T19:18:24.550Z,101500.72
2019-05-11T19:20:55.581Z,101503.77
2019-05-11T19:23:28.655Z,101508.17
2019-05-11T19:25:59.307Z,101517.12
2019-05-11T19:28:30.243Z,101521.63
2019-05-11T19:31:01.238Z,101523.56
2019-05-11T19:33:33.216Z,101536.61
2019-05-11T19:36:04.370Z,101542.63
2019-05-11T19:41:09.808Z,101560.39
2019-05-11T19:46:09.299Z,101570.10
2019-05-11T19:49:47.843Z,101572.31
2019-05-11T19:54:51.747Z,101595.39
2019-05-11T20:02:21.191Z,101610.39
2019-05-11T20:05:20.844Z,101622.03
2019-05-11T20:08:00.985Z,101626.92
2019-05-11T20:10:32.686Z,101630.53
2019-05-11T20:13:03.757Z,101639.61
2019-05-11T20:15:34.850Z,101650.97
2019-05-11T20:20:44.179Z,101662.97
2019-05-11T20:23:19.283Z,101662.61
2019-05-11T20:25:53.730Z,101671.70
2019-05-11T20:28:40.421Z,101681.41
2019-05-11T20:31:18.388Z,101685.75
2019-05-11T20:33:53.645Z,101697.97
2019-05-11T20:39:04.289Z,101699.34
2019-05-11T20:41:33.932Z,101707.47
2019-05-11T20:49:22.556Z,101717.02
2019-05-11T20:54:39.433Z,101728.31
2019-05-11T20:59:45.428Z,101749.02
2019-05-11T21:04:58.753Z,101761.80
2019-05-11T21:07:41.254Z,101767.67
2019-05-11T21:10:13.638Z,101764.64
2019-05-11T21:13:08.573Z,101773.20
2019-05-11T21:15:43.151Z,101774.66
2019-05-11T21:18:20.147Z,101780.94
2019-05-11T21:23:24.027Z,101785.59
2019-05-11T21:25:58.210Z,101791.44
2019-05-11T21:30:59.516Z,101806.53
2019-05-11T21:33:30.550Z,101818.14
2019-05-11T21:36:01.575Z,101815.56
2019-05-11T21:38:38.631Z,101822.88
2019-05-11T21:46:08.293Z,101831.45
2019-05-11T21:48:42.353Z,101838.61
2019-05-11T21:51:18.128Z,101839.04
2019-05-11T21:53:52.394Z,101840.36
2019-05-11T21:56:25.337Z,101847.80
2019-05-11T21:58:56.564Z,101850.37
2019-05-11T22:01:28.280Z,101852.19
2019-05-11T22:03:59.671Z,101868.98
2019-05-11T22:06:30.833Z,101879.38
2019-05-11T22:11:49.182Z,101888.84
2019-05-11T22:14:22.374Z,101890.71
2019-05-11T22:19:25.865Z,101892.03
2019-05-11T22:21:58.255Z,101895.15
2019-05-11T22:24:29.615Z,101900.87
2019-05-11T22:27:03.052Z,101898.81
2019-05-11T22:29:34.540Z,101904.55
2019-05-11T22:32:09.440Z,101908.79
2019-05-11T22:37:09.559Z,101916.87
2019-05-11T22:39:40.649Z,101908.09
2019-05-11T22:42:11.658Z,101916.20
2019-05-11T22:44:42.822Z,101919.84
2019-05-11T22:47:13.377Z,101912.80
2019-05-11T22:49:44.558Z,101918.66
2019-05-11T22:52:17.853Z,101923.12
2019-05-11T22:54:48.534Z,101924.94
2019-05-11T22:57:20.254Z,101929.48
2019-05-11T22:59:51.185Z,101933.98
2019-05-11T23:02:25.330Z,101938.08
2019-05-11T23:04:57.913Z,101943.89
2019-05-11T23:07:33.813Z,101945.34
2019-05-11T23:12:32.113Z,101950.75
2019-05-11T23:15:13.714Z,101955.78
2019-05-11T23:17:44.699Z,101959.86
2019-05-11T23:22:57.453Z,101974.27
2019-05-11T23:25:24.179Z,101978.73
2019-05-11T23:27:55.744Z,101984.14
2019-05-11T23:30:28.083Z,101994.84
2019-05-11T23:35:28.584Z,102003.30
2019-05-11T23:37:59.778Z,102004.69
2019-05-11T23:40:30.714Z,102004.24
2019-05-11T23:43:01.862Z,102008.31
2019-05-11T23:45:33.002Z,102016.83
2019-05-11T23:48:04.323Z,102013.28
2019-05-11T23:50:35.351Z,102027.14
2019-05-11T23:53:09.686Z,102026.69
2019-05-11T23:55:38.892Z,102028.47
2019-05-11T23:58:09.991Z,102035.16
